sensor_id;sensor_type;location;lat;lon;timestamp;P1;durP1;ratioP1;P2;durP2;ratioP2
23280;SDS011;11809;56.390;-3.266;2022-09-29T00:00:25;1.80;;;1.10;;
23280;SDS011;11809;56.390;-3.266;2022-09-29T00:02:53;1.30;;;1.10;;
23280;SDS011;11809;56.390;-3.266;2022-09-29T00:05:20;1.20;;;1.10;;
23280;SDS011;11809;56.390;-3.266;2022-09-29T00:07:47;2.38;;;1.20;;
23280;SDS011;11809;56.390;-3.266;2022-09-29T00:10:14;3.58;;;1.20;;
23280;SDS011;11809;56.390;-3.266;2022-09-29T00:12:41;2.20;;;1.20;;
23280;SDS011;11809;56.390;-3.266;2022-09-29T00:15:08;1.40;;;0.90;;
23280;SDS011;11809;56.390;-3.266;2022-09-29T00:17:35;1.90;;;1.10;;
23280;SDS011;11809;56.390;-3.266;2022-09-29T00:20:02;1.48;;;1.10;;
23280;SDS011;11809;56.390;-3.266;2022-09-29T00:22:30;3.05;;;1.10;;
23280;SDS011;11809;56.390;-3.266;2022-09-29T00:24:56;1.50;;;1.10;;
23280;SDS011;11809;56.390;-3.266;2022-09-29T00:27:23;2.25;;;1.23;;
23280;SDS011;11809;56.390;-3.266;2022-09-29T00:29:51;3.15;;;1.17;;
23280;SDS011;11809;56.390;-3.266;2022-09-29T00:32:18;1.30;;;1.00;;
23280;SDS011;11809;56.390;-3.266;2022-09-29T00:34:45;1.83;;;1.08;;
23280;SDS011;11809;56.390;-3.266;2022-09-29T00:37:12;1.30;;;1.20;;
23280;SDS011;11809;56.390;-3.266;2022-09-29T00:39:39;1.80;;;1.13;;
23280;SDS011;11809;56.390;-3.266;2022-09-29T00:42:08;1.77;;;1.20;;
23280;SDS011;11809;56.390;-3.266;2022-09-29T00:47:33;2.53;;;1.25;;
23280;SDS011;11809;56.390;-3.266;2022-09-29T00:50:04;1.75;;;1.23;;
23280;SDS011;11809;56.390;-3.266;2022-09-29T00:52:43;2.40;;;1.17;;
23280;SDS011;11809;56.390;-3.266;2022-09-29T00:58:02;1.30;;;1.20;;
23280;SDS011;11809;56.390;-3.266;2022-09-29T01:00:54;1.40;;;1.10;;
23280;SDS011;11809;56.390;-3.266;2022-09-29T01:03:21;1.48;;;1.38;;
23280;SDS011;11809;56.390;-3.266;2022-09-29T01:05:56;2.05;;;1.30;;
23280;SDS011;11809;56.390;-3.266;2022-09-29T01:09:01;1.80;;;1.27;;
23280;SDS011;11809;56.390;-3.266;2022-09-29T01:11:40;1.98;;;1.20;;
23280;SDS011;11809;56.390;-3.266;2022-09-29T01:14:08;1.60;;;1.40;;
23280;SDS011;11809;56.390;-3.266;2022-09-29T01:16:36;4.35;;;1.65;;
23280;SDS011;11809;56.390;-3.266;2022-09-29T01:19:06;2.65;;;1.60;;
23280;SDS011;11809;56.390;-3.266;2022-09-29T01:21:40;2.53;;;1.50;;
23280;SDS011;11809;56.390;-3.266;2022-09-29T01:41:27;2.40;;;1.55;;
23280;SDS011;11809;56.390;-3.266;2022-09-29T01:46:42;1.98;;;1.70;;
23280;SDS011;11809;56.390;-3.266;2022-09-29T01:49:13;2.75;;;1.50;;
23280;SDS011;11809;56.390;-3.266;2022-09-29T01:51:46;3.28;;;1.77;;
23280;SDS011;11809;56.390;-3.266;2022-09-29T01:54:59;2.28;;;1.77;;
23280;SDS011;11809;56.390;-3.266;2022-09-29T01:57:50;2.35;;;1.52;;
23280;SDS011;11809;56.390;-3.266;2022-09-29T02:00:20;1.58;;;1.48;;
23280;SDS011;11809;56.390;-3.266;2022-09-29T02:02:50;2.53;;;1.75;;
23280;SDS011;11809;56.390;-3.266;2022-09-29T02:05:26;2.80;;;1.55;;
23280;SDS011;11809;56.390;-3.266;2022-09-29T02:07:57;1.92;;;1.45;;
23280;SDS011;11809;56.390;-3.266;2022-09-29T02:10:49;1.75;;;1.50;;
23280;SDS011;11809;56.390;-3.266;2022-09-29T02:13:24;2.42;;;1.80;;
23280;SDS011;11809;56.390;-3.266;2022-09-29T02:15:53;2.53;;;1.83;;
23280;SDS011;11809;56.390;-3.266;2022-09-29T02:18:23;1.55;;;1.45;;
23280;SDS011;11809;56.390;-3.266;2022-09-29T02:20:55;2.08;;;1.52;;
23280;SDS011;11809;56.390;-3.266;2022-09-29T02:23:22;2.42;;;1.70;;
23280;SDS011;11809;56.390;-3.266;2022-09-29T02:25:49;3.03;;;1.70;;
23280;SDS011;11809;56.390;-3.266;2022-09-29T02:28:17;2.60;;;1.80;;
23280;SDS011;11809;56.390;-3.266;2022-09-29T02:30:44;2.33;;;1.88;;
23280;SDS011;11809;56.390;-3.266;2022-09-29T02:33:22;3.03;;;1.80;;
23280;SDS011;11809;56.390;-3.266;2022-09-29T02:38:42;1.80;;;1.65;;
23280;SDS011;11809;56.390;-3.266;2022-09-29T02:41:41;3.15;;;2.30;;
23280;SDS011;11809;56.390;-3.266;2022-09-29T02:46:52;1.92;;;1.63;;
23280;SDS011;11809;56.390;-3.266;2022-09-29T02:52:00;2.25;;;1.83;;
23280;SDS011;11809;56.390;-3.266;2022-09-29T02:54:52;1.73;;;1.58;;
23280;SDS011;11809;56.390;-3.266;2022-09-29T03:00:15;1.98;;;1.77;;
23280;SDS011;11809;56.390;-3.266;2022-09-29T03:02:43;1.85;;;1.70;;
23280;SDS011;11809;56.390;-3.266;2022-09-29T03:05:12;2.67;;;1.90;;
23280;SDS011;11809;56.390;-3.266;2022-09-29T03:07:41;2.08;;;1.80;;
23280;SDS011;11809;56.390;-3.266;2022-09-29T03:10:09;1.77;;;1.67;;
23280;SDS011;11809;56.390;-3.266;2022-09-29T03:12:37;4.20;;;1.90;;
23280;SDS011;11809;56.390;-3.266;2022-09-29T03:15:05;1.60;;;1.50;;
23280;SDS011;11809;56.390;-3.266;2022-09-29T03:17:33;1.60;;;1.50;;
23280;SDS011;11809;56.390;-3.266;2022-09-29T03:20:00;2.25;;;2.15;;
23280;SDS011;11809;56.390;-3.266;2022-09-29T03:22:27;2.00;;;1.80;;
23280;SDS011;11809;56.390;-3.266;2022-09-29T03:24:54;2.65;;;1.55;;
23280;SDS011;11809;56.390;-3.266;2022-09-29T03:27:21;2.35;;;1.60;;
23280;SDS011;11809;56.390;-3.266;2022-09-29T03:29:48;2.75;;;1.70;;
23280;SDS011;11809;56.390;-3.266;2022-09-29T03:32:16;1.92;;;1.70;;
23280;SDS011;11809;56.390;-3.266;2022-09-29T03:34:43;2.70;;;1.58;;
23280;SDS011;11809;56.390;-3.266;2022-09-29T03:37:10;1.70;;;1.60;;
23280;SDS011;11809;56.390;-3.266;2022-09-29T03:39:37;2.38;;;1.67;;
23280;SDS011;11809;56.390;-3.266;2022-09-29T03:42:04;4.13;;;1.70;;
23280;SDS011;11809;56.390;-3.266;2022-09-29T03:44:30;1.75;;;1.65;;
23280;SDS011;11809;56.390;-3.266;2022-09-29T03:46:57;2.03;;;1.70;;
23280;SDS011;11809;56.390;-3.266;2022-09-29T03:49:24;2.47;;;1.88;;
23280;SDS011;11809;56.390;-3.266;2022-09-29T03:51:51;1.73;;;1.63;;
23280;SDS011;11809;56.390;-3.266;2022-09-29T03:54:18;2.17;;;1.77;;
23280;SDS011;11809;56.390;-3.266;2022-09-29T03:56:45;1.73;;;1.63;;
23280;SDS011;11809;56.390;-3.266;2022-09-29T03:59:12;1.92;;;1.45;;
23280;SDS011;11809;56.390;-3.266;2022-09-29T04:01:40;3.05;;;1.60;;
23280;SDS011;11809;56.390;-3.266;2022-09-29T04:04:07;1.70;;;1.60;;
23280;SDS011;11809;56.390;-3.266;2022-09-29T04:06:35;1.75;;;1.63;;
23280;SDS011;11809;56.390;-3.266;2022-09-29T04:09:02;1.75;;;1.60;;
23280;SDS011;11809;56.390;-3.266;2022-09-29T04:11:29;1.70;;;1.60;;
23280;SDS011;11809;56.390;-3.266;2022-09-29T04:13:56;3.08;;;1.70;;
23280;SDS011;11809;56.390;-3.266;2022-09-29T04:16:23;1.88;;;1.60;;
23280;SDS011;11809;56.390;-3.266;2022-09-29T04:18:50;1.60;;;1.48;;
23280;SDS011;11809;56.390;-3.266;2022-09-29T04:21:17;1.52;;;1.40;;
23280;SDS011;11809;56.390;-3.266;2022-09-29T04:23:45;2.70;;;1.67;;
23280;SDS011;11809;56.390;-3.266;2022-09-29T04:26:12;2.38;;;1.60;;
23280;SDS011;11809;56.390;-3.266;2022-09-29T04:28:39;2.47;;;1.40;;
23280;SDS011;11809;56.390;-3.266;2022-09-29T04:31:06;1.80;;;1.58;;
23280;SDS011;11809;56.390;-3.266;2022-09-29T04:33:34;1.95;;;1.40;;
23280;SDS011;11809;56.390;-3.266;2022-09-29T04:36:01;1.95;;;1.48;;
23280;SDS011;11809;56.390;-3.266;2022-09-29T04:38:28;3.15;;;1.42;;
23280;SDS011;11809;56.390;-3.266;2022-09-29T04:40:55;5.28;;;1.40;;
23280;SDS011;11809;56.390;-3.266;2022-09-29T04:43:22;10.82;;;1.90;;
23280;SDS011;11809;56.390;-3.266;2022-09-29T04:45:49;6.88;;;1.67;;
23280;SDS011;11809;56.390;-3.266;2022-09-29T04:48:16;3.00;;;1.42;;
23280;SDS011;11809;56.390;-3.266;2022-09-29T04:50:43;7.93;;;1.73;;
23280;SDS011;11809;56.390;-3.266;2022-09-29T04:53:10;1.75;;;1.50;;
23280;SDS011;11809;56.390;-3.266;2022-09-29T04:55:37;9.95;;;1.63;;
23280;SDS011;11809;56.390;-3.266;2022-09-29T04:58:04;3.42;;;1.50;;
23280;SDS011;11809;56.390;-3.266;2022-09-29T05:00:31;3.92;;;1.70;;
23280;SDS011;11809;56.390;-3.266;2022-09-29T05:02:58;6.30;;;1.65;;
23280;SDS011;11809;56.390;-3.266;2022-09-29T05:05:26;8.02;;;2.00;;
23280;SDS011;11809;56.390;-3.266;2022-09-29T05:07:53;2.63;;;1.88;;
23280;SDS011;11809;56.390;-3.266;2022-09-29T05:10:20;6.70;;;1.60;;
23280;SDS011;11809;56.390;-3.266;2022-09-29T05:12:50;2.35;;;1.52;;
23280;SDS011;11809;56.390;-3.266;2022-09-29T05:15:17;7.73;;;2.00;;
23280;SDS011;11809;56.390;-3.266;2022-09-29T05:17:50;2.22;;;1.60;;
23280;SDS011;11809;56.390;-3.266;2022-09-29T05:20:17;9.18;;;2.08;;
23280;SDS011;11809;56.390;-3.266;2022-09-29T05:22:45;8.18;;;2.13;;
23280;SDS011;11809;56.390;-3.266;2022-09-29T05:25:11;4.68;;;1.70;;
23280;SDS011;11809;56.390;-3.266;2022-09-29T05:27:38;10.23;;;2.50;;
23280;SDS011;11809;56.390;-3.266;2022-09-29T05:30:05;4.45;;;1.83;;
23280;SDS011;11809;56.390;-3.266;2022-09-29T05:32:32;6.50;;;2.25;;
23280;SDS011;11809;56.390;-3.266;2022-09-29T05:34:59;4.70;;;1.98;;
23280;SDS011;11809;56.390;-3.266;2022-09-29T05:37:26;5.50;;;1.92;;
23280;SDS011;11809;56.390;-3.266;2022-09-29T05:39:53;2.47;;;1.58;;
23280;SDS011;11809;56.390;-3.266;2022-09-29T05:42:20;4.13;;;1.70;;
23280;SDS011;11809;56.390;-3.266;2022-09-29T05:44:47;7.07;;;1.77;;
23280;SDS011;11809;56.390;-3.266;2022-09-29T05:47:14;3.47;;;1.70;;
23280;SDS011;11809;56.390;-3.266;2022-09-29T05:49:41;2.58;;;1.58;;
23280;SDS011;11809;56.390;-3.266;2022-09-29T05:52:08;2.88;;;1.50;;
23280;SDS011;11809;56.390;-3.266;2022-09-29T05:54:35;3.17;;;1.40;;
23280;SDS011;11809;56.390;-3.266;2022-09-29T05:57:02;3.50;;;1.60;;
23280;SDS011;11809;56.390;-3.266;2022-09-29T05:59:29;2.75;;;1.40;;
23280;SDS011;11809;56.390;-3.266;2022-09-29T06:01:56;2.28;;;1.45;;
23280;SDS011;11809;56.390;-3.266;2022-09-29T06:04:23;2.40;;;1.67;;
23280;SDS011;11809;56.390;-3.266;2022-09-29T06:06:50;2.10;;;1.33;;
23280;SDS011;11809;56.390;-3.266;2022-09-29T06:09:17;4.80;;;1.75;;
23280;SDS011;11809;56.390;-3.266;2022-09-29T06:11:45;8.63;;;2.97;;
23280;SDS011;11809;56.390;-3.266;2022-09-29T06:14:12;26.63;;;7.60;;
23280;SDS011;11809;56.390;-3.266;2022-09-29T06:16:39;24.30;;;8.32;;
23280;SDS011;11809;56.390;-3.266;2022-09-29T06:19:06;10.70;;;4.20;;
23280;SDS011;11809;56.390;-3.266;2022-09-29T06:21:33;31.42;;;9.75;;
23280;SDS011;11809;56.390;-3.266;2022-09-29T06:24:03;33.55;;;8.10;;
23280;SDS011;11809;56.390;-3.266;2022-09-29T06:26:32;27.73;;;7.60;;
23280;SDS011;11809;56.390;-3.266;2022-09-29T06:29:00;17.80;;;6.18;;
23280;SDS011;11809;56.390;-3.266;2022-09-29T06:31:28;16.48;;;5.57;;
23280;SDS011;11809;56.390;-3.266;2022-09-29T06:34:00;17.50;;;5.15;;
23280;SDS011;11809;56.390;-3.266;2022-09-29T06:36:38;27.63;;;5.15;;
23280;SDS011;11809;56.390;-3.266;2022-09-29T06:39:26;18.67;;;6.18;;
23280;SDS011;11809;56.390;-3.266;2022-09-29T06:41:54;17.88;;;6.22;;
23280;SDS011;11809;56.390;-3.266;2022-09-29T06:44:23;18.02;;;7.18;;
23280;SDS011;11809;56.390;-3.266;2022-09-29T06:46:53;18.83;;;6.40;;
23280;SDS011;11809;56.390;-3.266;2022-09-29T06:49:21;17.90;;;6.15;;
23280;SDS011;11809;56.390;-3.266;2022-09-29T06:51:49;13.43;;;5.60;;
23280;SDS011;11809;56.390;-3.266;2022-09-29T06:54:17;13.65;;;5.28;;
23280;SDS011;11809;56.390;-3.266;2022-09-29T06:56:47;14.67;;;5.20;;
23280;SDS011;11809;56.390;-3.266;2022-09-29T06:59:19;11.82;;;4.93;;
23280;SDS011;11809;56.390;-3.266;2022-09-29T07:01:46;13.85;;;5.07;;
23280;SDS011;11809;56.390;-3.266;2022-09-29T07:04:17;14.20;;;5.33;;
23280;SDS011;11809;56.390;-3.266;2022-09-29T07:06:46;11.20;;;4.38;;
23280;SDS011;11809;56.390;-3.266;2022-09-29T07:09:14;11.10;;;4.97;;
23280;SDS011;11809;56.390;-3.266;2022-09-29T07:11:42;9.80;;;4.03;;
23280;SDS011;11809;56.390;-3.266;2022-09-29T07:14:13;10.80;;;4.55;;
23280;SDS011;11809;56.390;-3.266;2022-09-29T07:16:45;10.93;;;3.88;;
23280;SDS011;11809;56.390;-3.266;2022-09-29T07:19:14;12.20;;;4.43;;
23280;SDS011;11809;56.390;-3.266;2022-09-29T07:21:44;9.13;;;4.00;;
23280;SDS011;11809;56.390;-3.266;2022-09-29T07:24:14;10.57;;;4.43;;
23280;SDS011;11809;56.390;-3.266;2022-09-29T07:26:41;8.48;;;3.80;;
23280;SDS011;11809;56.390;-3.266;2022-09-29T07:29:08;10.13;;;4.07;;
23280;SDS011;11809;56.390;-3.266;2022-09-29T07:31:41;9.27;;;4.05;;
23280;SDS011;11809;56.390;-3.266;2022-09-29T07:34:17;7.15;;;3.30;;
23280;SDS011;11809;56.390;-3.266;2022-09-29T07:36:45;6.22;;;3.42;;
23280;SDS011;11809;56.390;-3.266;2022-09-29T07:39:12;9.18;;;3.08;;
23280;SDS011;11809;56.390;-3.266;2022-09-29T07:41:40;7.72;;;3.15;;
23280;SDS011;11809;56.390;-3.266;2022-09-29T07:44:07;6.45;;;2.92;;
23280;SDS011;11809;56.390;-3.266;2022-09-29T07:46:34;8.15;;;2.92;;
23280;SDS011;11809;56.390;-3.266;2022-09-29T07:49:01;6.65;;;3.42;;
23280;SDS011;11809;56.390;-3.266;2022-09-29T07:51:28;4.43;;;2.42;;
23280;SDS011;11809;56.390;-3.266;2022-09-29T07:53:55;7.15;;;2.85;;
23280;SDS011;11809;56.390;-3.266;2022-09-29T07:56:27;8.13;;;3.13;;
23280;SDS011;11809;56.390;-3.266;2022-09-29T07:58:53;6.57;;;2.70;;
23280;SDS011;11809;56.390;-3.266;2022-09-29T08:01:21;5.50;;;2.95;;
23280;SDS011;11809;56.390;-3.266;2022-09-29T08:03:49;4.95;;;2.67;;
23280;SDS011;11809;56.390;-3.266;2022-09-29T08:06:18;6.20;;;2.80;;
23280;SDS011;11809;56.390;-3.266;2022-09-29T08:08:46;3.50;;;2.40;;
23280;SDS011;11809;56.390;-3.266;2022-09-29T08:11:28;4.88;;;2.40;;
23280;SDS011;11809;56.390;-3.266;2022-09-29T08:13:58;4.28;;;2.50;;
23280;SDS011;11809;56.390;-3.266;2022-09-29T08:16:25;5.40;;;2.50;;
23280;SDS011;11809;56.390;-3.266;2022-09-29T08:18:52;4.45;;;2.30;;
23280;SDS011;11809;56.390;-3.266;2022-09-29T08:21:19;4.22;;;2.22;;
23280;SDS011;11809;56.390;-3.266;2022-09-29T08:23:46;4.60;;;2.30;;
23280;SDS011;11809;56.390;-3.266;2022-09-29T08:26:15;4.53;;;2.10;;
23280;SDS011;11809;56.390;-3.266;2022-09-29T08:28:47;4.28;;;2.20;;
23280;SDS011;11809;56.390;-3.266;2022-09-29T08:31:29;4.70;;;2.00;;
23280;SDS011;11809;56.390;-3.266;2022-09-29T08:33:57;2.95;;;2.05;;
23280;SDS011;11809;56.390;-3.266;2022-09-29T08:36:24;3.97;;;2.22;;
23280;SDS011;11809;56.390;-3.266;2022-09-29T08:38:52;3.20;;;2.22;;
23280;SDS011;11809;56.390;-3.266;2022-09-29T08:46:33;4.72;;;1.75;;
23280;SDS011;11809;56.390;-3.266;2022-09-29T08:49:08;5.80;;;1.90;;
23280;SDS011;11809;56.390;-3.266;2022-09-29T08:51:54;4.80;;;1.90;;
23280;SDS011;11809;56.390;-3.266;2022-09-29T08:54:42;3.40;;;1.70;;
23280;SDS011;11809;56.390;-3.266;2022-09-29T08:57:15;4.78;;;2.00;;
23280;SDS011;11809;56.390;-3.266;2022-09-29T08:59:54;2.08;;;1.77;;
23280;SDS011;11809;56.390;-3.266;2022-09-29T09:11:19;2.38;;;1.88;;
23280;SDS011;11809;56.390;-3.266;2022-09-29T09:14:24;1.98;;;1.58;;
23280;SDS011;11809;56.390;-3.266;2022-09-29T09:20:06;3.13;;;1.63;;
23280;SDS011;11809;56.390;-3.266;2022-09-29T09:25:43;4.60;;;1.52;;
23280;SDS011;11809;56.390;-3.266;2022-09-29T09:28:17;2.55;;;1.60;;
23280;SDS011;11809;56.390;-3.266;2022-09-29T09:30:50;2.83;;;1.50;;
23280;SDS011;11809;56.390;-3.266;2022-09-29T09:36:35;3.78;;;1.40;;
23280;SDS011;11809;56.390;-3.266;2022-09-29T09:39:14;1.65;;;1.15;;
23280;SDS011;11809;56.390;-3.266;2022-09-29T09:41:46;2.15;;;1.52;;
23280;SDS011;11809;56.390;-3.266;2022-09-29T09:44:28;1.95;;;1.40;;
23280;SDS011;11809;56.390;-3.266;2022-09-29T09:47:02;2.08;;;1.65;;
23280;SDS011;11809;56.390;-3.266;2022-09-29T09:49:47;3.47;;;1.35;;
23280;SDS011;11809;56.390;-3.266;2022-09-29T09:52:20;1.52;;;1.40;;
23280;SDS011;11809;56.390;-3.266;2022-09-29T09:54:53;2.35;;;1.58;;
23280;SDS011;11809;56.390;-3.266;2022-09-29T10:00:21;1.65;;;1.17;;
23280;SDS011;11809;56.390;-3.266;2022-09-29T10:03:09;2.55;;;1.25;;
23280;SDS011;11809;56.390;-3.266;2022-09-29T10:05:38;1.67;;;1.30;;
23280;SDS011;11809;56.390;-3.266;2022-09-29T10:11:23;1.30;;;1.20;;
23280;SDS011;11809;56.390;-3.266;2022-09-29T10:19:08;2.65;;;1.30;;
23280;SDS011;11809;56.390;-3.266;2022-09-29T10:21:40;1.30;;;1.20;;
23280;SDS011;11809;56.390;-3.266;2022-09-29T10:26:48;1.50;;;1.40;;
23280;SDS011;11809;56.390;-3.266;2022-09-29T10:29:24;2.03;;;1.13;;
23280;SDS011;11809;56.390;-3.266;2022-09-29T10:32:01;2.83;;;1.40;;
23280;SDS011;11809;56.390;-3.266;2022-09-29T10:34:30;1.30;;;1.20;;
23280;SDS011;11809;56.390;-3.266;2022-09-29T10:37:02;1.98;;;1.50;;
23280;SDS011;11809;56.390;-3.266;2022-09-29T10:39:39;1.50;;;1.25;;
23280;SDS011;11809;56.390;-3.266;2022-09-29T10:47:41;1.58;;;1.38;;
23280;SDS011;11809;56.390;-3.266;2022-09-29T10:50:16;1.45;;;1.35;;
23280;SDS011;11809;56.390;-3.266;2022-09-29T10:52:46;2.25;;;1.35;;
23280;SDS011;11809;56.390;-3.266;2022-09-29T10:55:22;2.30;;;1.50;;
23280;SDS011;11809;56.390;-3.266;2022-09-29T10:57:50;1.45;;;1.35;;
23280;SDS011;11809;56.390;-3.266;2022-09-29T11:00:27;1.98;;;1.38;;
23280;SDS011;11809;56.390;-3.266;2022-09-29T11:03:01;1.27;;;1.17;;
23280;SDS011;11809;56.390;-3.266;2022-09-29T11:05:30;1.85;;;1.50;;
23280;SDS011;11809;56.390;-3.266;2022-09-29T11:07:58;1.45;;;1.30;;
23280;SDS011;11809;56.390;-3.266;2022-09-29T11:10:26;1.63;;;1.20;;
23280;SDS011;11809;56.390;-3.266;2022-09-29T11:12:55;2.80;;;1.33;;
23280;SDS011;11809;56.390;-3.266;2022-09-29T11:15:25;1.30;;;1.20;;
23280;SDS011;11809;56.390;-3.266;2022-09-29T11:17:55;2.33;;;1.38;;
23280;SDS011;11809;56.390;-3.266;2022-09-29T11:20:24;1.83;;;1.40;;
23280;SDS011;11809;56.390;-3.266;2022-09-29T11:33:37;2.45;;;1.42;;
23280;SDS011;11809;56.390;-3.266;2022-09-29T11:38:57;2.28;;;1.80;;
23280;SDS011;11809;56.390;-3.266;2022-09-29T12:00:49;2.55;;;1.63;;
23280;SDS011;11809;56.390;-3.266;2022-09-29T12:03:49;1.55;;;1.45;;
23280;SDS011;11809;56.390;-3.266;2022-09-29T12:06:48;1.60;;;1.48;;
23280;SDS011;11809;56.390;-3.266;2022-09-29T12:17:35;1.83;;;1.60;;
23280;SDS011;11809;56.390;-3.266;2022-09-29T12:20:15;2.25;;;1.80;;
23280;SDS011;11809;56.390;-3.266;2022-09-29T12:22:44;2.08;;;1.40;;
23280;SDS011;11809;56.390;-3.266;2022-09-29T12:25:17;1.77;;;1.67;;
23280;SDS011;11809;56.390;-3.266;2022-09-29T12:27:52;1.50;;;1.40;;
23280;SDS011;11809;56.390;-3.266;2022-09-29T12:30:28;1.85;;;1.70;;
23280;SDS011;11809;56.390;-3.266;2022-09-29T12:38:59;1.88;;;1.50;;
23280;SDS011;11809;56.390;-3.266;2022-09-29T12:41:36;1.60;;;1.50;;
23280;SDS011;11809;56.390;-3.266;2022-09-29T12:44:12;1.95;;;1.60;;
23280;SDS011;11809;56.390;-3.266;2022-09-29T12:50:10;2.30;;;1.70;;
23280;SDS011;11809;56.390;-3.266;2022-09-29T12:52:48;1.55;;;1.45;;
23280;SDS011;11809;56.390;-3.266;2022-09-29T12:58:24;1.40;;;1.30;;
23280;SDS011;11809;56.390;-3.266;2022-09-29T13:01:03;3.03;;;1.83;;
23280;SDS011;11809;56.390;-3.266;2022-09-29T13:03:50;1.50;;;1.40;;
23280;SDS011;11809;56.390;-3.266;2022-09-29T13:06:37;1.85;;;1.75;;
23280;SDS011;11809;56.390;-3.266;2022-09-29T13:20:27;1.52;;;1.38;;
23280;SDS011;11809;56.390;-3.266;2022-09-29T13:28:47;1.98;;;1.73;;
23280;SDS011;11809;56.390;-3.266;2022-09-29T13:31:20;1.70;;;1.60;;
23280;SDS011;11809;56.390;-3.266;2022-09-29T13:33:59;2.10;;;1.60;;
23280;SDS011;11809;56.390;-3.266;2022-09-29T13:36:32;1.60;;;1.50;;
23280;SDS011;11809;56.390;-3.266;2022-09-29T13:39:18;1.88;;;1.60;;
23280;SDS011;11809;56.390;-3.266;2022-09-29T13:41:48;1.63;;;1.52;;
23280;SDS011;11809;56.390;-3.266;2022-09-29T13:46:50;2.00;;;1.80;;
23280;SDS011;11809;56.390;-3.266;2022-09-29T13:51:50;2.03;;;1.83;;
23280;SDS011;11809;56.390;-3.266;2022-09-29T13:54:49;1.70;;;1.60;;
23280;SDS011;11809;56.390;-3.266;2022-09-29T14:02:34;1.73;;;1.60;;
23280;SDS011;11809;56.390;-3.266;2022-09-29T14:12:59;2.33;;;1.73;;
23280;SDS011;11809;56.390;-3.266;2022-09-29T14:15:42;1.60;;;1.50;;
23280;SDS011;11809;56.390;-3.266;2022-09-29T14:18:35;2.10;;;1.60;;
23280;SDS011;11809;56.390;-3.266;2022-09-29T14:21:09;1.63;;;1.52;;
23280;SDS011;11809;56.390;-3.266;2022-09-29T14:29:32;1.73;;;1.63;;
23280;SDS011;11809;56.390;-3.266;2022-09-29T14:31:59;1.88;;;1.55;;
23280;SDS011;11809;56.390;-3.266;2022-09-29T14:34:29;1.77;;;1.67;;
23280;SDS011;11809;56.390;-3.266;2022-09-29T14:36:59;2.45;;;1.67;;
23280;SDS011;11809;56.390;-3.266;2022-09-29T14:39:28;2.13;;;1.73;;
23280;SDS011;11809;56.390;-3.266;2022-09-29T14:41:56;1.70;;;1.60;;
23280;SDS011;11809;56.390;-3.266;2022-09-29T14:44:30;1.85;;;1.75;;
23280;SDS011;11809;56.390;-3.266;2022-09-29T14:47:34;1.83;;;1.60;;
23280;SDS011;11809;56.390;-3.266;2022-09-29T15:01:29;6.10;;;1.73;;
23280;SDS011;11809;56.390;-3.266;2022-09-29T15:04:18;1.90;;;1.80;;
23280;SDS011;11809;56.390;-3.266;2022-09-29T15:06:45;3.65;;;1.73;;
23280;SDS011;11809;56.390;-3.266;2022-09-29T15:09:21;1.80;;;1.70;;
23280;SDS011;11809;56.390;-3.266;2022-09-29T15:11:51;1.73;;;1.60;;
23280;SDS011;11809;56.390;-3.266;2022-09-29T15:25:52;3.50;;;1.83;;
23280;SDS011;11809;56.390;-3.266;2022-09-29T15:28:26;2.85;;;1.85;;
23280;SDS011;11809;56.390;-3.266;2022-09-29T15:31:05;3.63;;;1.63;;
23280;SDS011;11809;56.390;-3.266;2022-09-29T15:33:36;1.70;;;1.60;;
23280;SDS011;11809;56.390;-3.266;2022-09-29T15:36:07;2.38;;;1.73;;
23280;SDS011;11809;56.390;-3.266;2022-09-29T15:38:42;1.83;;;1.60;;
23280;SDS011;11809;56.390;-3.266;2022-09-29T15:43:41;23.83;;;4.10;;
23280;SDS011;11809;56.390;-3.266;2022-09-29T15:51:55;5.97;;;2.60;;
23280;SDS011;11809;56.390;-3.266;2022-09-29T15:54:26;7.68;;;2.05;;
23280;SDS011;11809;56.390;-3.266;2022-09-29T15:59:52;8.38;;;2.15;;
23280;SDS011;11809;56.390;-3.266;2022-09-29T16:02:23;11.45;;;2.70;;
23280;SDS011;11809;56.390;-3.266;2022-09-29T16:05:05;22.83;;;3.70;;
23280;SDS011;11809;56.390;-3.266;2022-09-29T16:07:38;18.98;;;3.40;;
23280;SDS011;11809;56.390;-3.266;2022-09-29T16:10:29;11.65;;;4.00;;
23280;SDS011;11809;56.390;-3.266;2022-09-29T16:13:00;12.00;;;3.30;;
23280;SDS011;11809;56.390;-3.266;2022-09-29T16:15:45;12.00;;;3.63;;
23280;SDS011;11809;56.390;-3.266;2022-09-29T16:21:18;8.93;;;2.83;;
23280;SDS011;11809;56.390;-3.266;2022-09-29T16:23:59;27.00;;;4.00;;
23280;SDS011;11809;56.390;-3.266;2022-09-29T16:26:35;18.20;;;3.63;;
23280;SDS011;11809;56.390;-3.266;2022-09-29T16:31:44;13.00;;;4.05;;
23280;SDS011;11809;56.390;-3.266;2022-09-29T16:34:35;8.18;;;3.88;;
23280;SDS011;11809;56.390;-3.266;2022-09-29T16:37:16;13.77;;;4.15;;
23280;SDS011;11809;56.390;-3.266;2022-09-29T16:39:45;15.52;;;4.65;;
23280;SDS011;11809;56.390;-3.266;2022-09-29T16:42:24;10.20;;;5.07;;
23280;SDS011;11809;56.390;-3.266;2022-09-29T16:44:53;10.77;;;6.20;;
23280;SDS011;11809;56.390;-3.266;2022-09-29T16:47:25;15.95;;;6.82;;
23280;SDS011;11809;56.390;-3.266;2022-09-29T16:50:00;14.25;;;6.82;;
23280;SDS011;11809;56.390;-3.266;2022-09-29T16:55:16;16.03;;;6.73;;
23280;SDS011;11809;56.390;-3.266;2022-09-29T16:57:50;13.25;;;7.03;;
23280;SDS011;11809;56.390;-3.266;2022-09-29T17:00:20;11.25;;;6.53;;
23280;SDS011;11809;56.390;-3.266;2022-09-29T17:02:55;11.13;;;6.70;;
23280;SDS011;11809;56.390;-3.266;2022-09-29T17:05:28;9.38;;;5.80;;
23280;SDS011;11809;56.390;-3.266;2022-09-29T17:08:02;12.05;;;6.60;;
23280;SDS011;11809;56.390;-3.266;2022-09-29T17:10:31;9.85;;;5.28;;
23280;SDS011;11809;56.390;-3.266;2022-09-29T17:12:58;8.52;;;5.10;;
23280;SDS011;11809;56.390;-3.266;2022-09-29T17:15:26;13.27;;;4.93;;
23280;SDS011;11809;56.390;-3.266;2022-09-29T17:17:55;7.97;;;5.00;;
23280;SDS011;11809;56.390;-3.266;2022-09-29T17:20:23;8.88;;;4.90;;
23280;SDS011;11809;56.390;-3.266;2022-09-29T17:22:56;8.68;;;4.25;;
23280;SDS011;11809;56.390;-3.266;2022-09-29T17:25:25;6.82;;;4.10;;
23280;SDS011;11809;56.390;-3.266;2022-09-29T17:27:53;8.02;;;4.10;;
23280;SDS011;11809;56.390;-3.266;2022-09-29T17:30:39;6.18;;;4.13;;
23280;SDS011;11809;56.390;-3.266;2022-09-29T17:33:11;4.90;;;3.80;;
23280;SDS011;11809;56.390;-3.266;2022-09-29T17:35:42;7.28;;;3.70;;
23280;SDS011;11809;56.390;-3.266;2022-09-29T17:38:20;8.80;;;3.97;;
23280;SDS011;11809;56.390;-3.266;2022-09-29T17:40:49;4.60;;;3.45;;
23280;SDS011;11809;56.390;-3.266;2022-09-29T17:43:20;4.63;;;3.42;;
23280;SDS011;11809;56.390;-3.266;2022-09-29T17:45:50;4.85;;;3.28;;
23280;SDS011;11809;56.390;-3.266;2022-09-29T17:48:19;7.13;;;3.20;;
23280;SDS011;11809;56.390;-3.266;2022-09-29T17:50:48;5.50;;;3.30;;
23280;SDS011;11809;56.390;-3.266;2022-09-29T17:53:16;5.03;;;2.85;;
23280;SDS011;11809;56.390;-3.266;2022-09-29T17:55:48;5.03;;;3.17;;
23280;SDS011;11809;56.390;-3.266;2022-09-29T17:58:18;17.20;;;3.90;;
23280;SDS011;11809;56.390;-3.266;2022-09-29T18:00:46;6.63;;;3.58;;
23280;SDS011;11809;56.390;-3.266;2022-09-29T18:03:16;7.72;;;3.35;;
23280;SDS011;11809;56.390;-3.266;2022-09-29T18:05:45;5.70;;;2.80;;
23280;SDS011;11809;56.390;-3.266;2022-09-29T18:08:16;12.25;;;3.10;;
23280;SDS011;11809;56.390;-3.266;2022-09-29T18:10:46;6.47;;;3.58;;
23280;SDS011;11809;56.390;-3.266;2022-09-29T18:13:18;13.35;;;3.65;;
23280;SDS011;11809;56.390;-3.266;2022-09-29T18:15:46;6.50;;;3.10;;
23280;SDS011;11809;56.390;-3.266;2022-09-29T18:18:15;4.95;;;3.20;;
23280;SDS011;11809;56.390;-3.266;2022-09-29T18:20:44;5.40;;;3.33;;
23280;SDS011;11809;56.390;-3.266;2022-09-29T18:23:13;5.75;;;3.58;;
23280;SDS011;11809;56.390;-3.266;2022-09-29T18:25:43;6.03;;;3.47;;
23280;SDS011;11809;56.390;-3.266;2022-09-29T18:28:14;6.30;;;3.22;;
23280;SDS011;11809;56.390;-3.266;2022-09-29T18:30:45;6.00;;;2.90;;
23280;SDS011;11809;56.390;-3.266;2022-09-29T18:33:16;3.95;;;2.85;;
23280;SDS011;11809;56.390;-3.266;2022-09-29T18:35:49;5.22;;;3.08;;